sensor_id;sensor_type;location;lat;lon;timestamp;P1;durP1;ratioP1;P2;durP2;ratioP2
22557;SDS011;11445;53.816;8.902;2023-10-13T00:02:13;19.38;;;7.70;;
22557;SDS011;11445;53.816;8.902;2023-10-13T00:04:45;12.00;;;7.00;;
22557;SDS011;11445;53.816;8.902;2023-10-13T00:07:12;13.25;;;7.65;;
22557;SDS011;11445;53.816;8.902;2023-10-13T00:09:38;25.15;;;7.80;;
22557;SDS011;11445;53.816;8.902;2023-10-13T00:12:06;25.45;;;7.43;;
22557;SDS011;11445;53.816;8.902;2023-10-13T00:14:38;16.02;;;7.07;;
22557;SDS011;11445;53.816;8.902;2023-10-13T00:17:06;17.35;;;7.35;;
22557;SDS011;11445;53.816;8.902;2023-10-13T00:19:40;16.90;;;7.53;;
22557;SDS011;11445;53.816;8.902;2023-10-13T00:22:13;16.80;;;6.60;;
22557;SDS011;11445;53.816;8.902;2023-10-13T00:24:42;15.05;;;7.25;;
22557;SDS011;11445;53.816;8.902;2023-10-13T00:27:10;23.98;;;8.07;;
22557;SDS011;11445;53.816;8.902;2023-10-13T00:29:54;22.00;;;8.82;;
22557;SDS011;11445;53.816;8.902;2023-10-13T00:32:41;23.50;;;8.00;;
22557;SDS011;11445;53.816;8.902;2023-10-13T00:35:09;28.77;;;8.77;;
22557;SDS011;11445;53.816;8.902;2023-10-13T00:37:39;18.92;;;8.05;;
22557;SDS011;11445;53.816;8.902;2023-10-13T00:40:09;16.55;;;8.38;;
22557;SDS011;11445;53.816;8.902;2023-10-13T00:42:51;20.52;;;9.35;;
22557;SDS011;11445;53.816;8.902;2023-10-13T00:45:19;27.63;;;9.68;;
22557;SDS011;11445;53.816;8.902;2023-10-13T00:47:45;20.67;;;9.80;;
22557;SDS011;11445;53.816;8.902;2023-10-13T00:50:14;24.02;;;10.38;;
22557;SDS011;11445;53.816;8.902;2023-10-13T00:52:44;28.40;;;10.35;;
22557;SDS011;11445;53.816;8.902;2023-10-13T00:55:16;35.53;;;12.10;;
22557;SDS011;11445;53.816;8.902;2023-10-13T00:57:47;31.58;;;10.85;;
22557;SDS011;11445;53.816;8.902;2023-10-13T01:00:18;39.40;;;12.02;;
22557;SDS011;11445;53.816;8.902;2023-10-13T01:02:49;33.25;;;12.93;;
22557;SDS011;11445;53.816;8.902;2023-10-13T01:05:20;36.80;;;13.60;;
22557;SDS011;11445;53.816;8.902;2023-10-13T01:07:49;33.58;;;13.75;;
22557;SDS011;11445;53.816;8.902;2023-10-13T01:10:18;36.90;;;14.38;;
22557;SDS011;11445;53.816;8.902;2023-10-13T01:12:44;35.95;;;14.18;;
22557;SDS011;11445;53.816;8.902;2023-10-13T01:15:11;37.85;;;14.68;;
22557;SDS011;11445;53.816;8.902;2023-10-13T01:17:41;38.17;;;15.10;;
22557;SDS011;11445;53.816;8.902;2023-10-13T01:20:11;50.15;;;16.05;;
22557;SDS011;11445;53.816;8.902;2023-10-13T01:22:43;44.70;;;16.95;;
22557;SDS011;11445;53.816;8.902;2023-10-13T01:25:16;49.78;;;17.45;;
22557;SDS011;11445;53.816;8.902;2023-10-13T01:27:44;53.67;;;17.15;;
22557;SDS011;11445;53.816;8.902;2023-10-13T01:30:14;55.17;;;18.90;;
22557;SDS011;11445;53.816;8.902;2023-10-13T01:32:48;54.47;;;19.52;;
22557;SDS011;11445;53.816;8.902;2023-10-13T01:35:16;62.90;;;18.95;;
22557;SDS011;11445;53.816;8.902;2023-10-13T01:37:44;68.45;;;20.33;;
22557;SDS011;11445;53.816;8.902;2023-10-13T01:40:11;60.00;;;19.27;;
22557;SDS011;11445;53.816;8.902;2023-10-13T01:42:38;63.53;;;19.92;;
22557;SDS011;11445;53.816;8.902;2023-10-13T01:45:06;70.07;;;20.27;;
22557;SDS011;11445;53.816;8.902;2023-10-13T01:47:32;73.90;;;21.80;;
22557;SDS011;11445;53.816;8.902;2023-10-13T01:49:59;68.32;;;20.45;;
22557;SDS011;11445;53.816;8.902;2023-10-13T01:52:31;70.50;;;21.27;;
22557;SDS011;11445;53.816;8.902;2023-10-13T01:54:58;64.78;;;20.42;;
22557;SDS011;11445;53.816;8.902;2023-10-13T01:57:26;70.22;;;20.17;;
22557;SDS011;11445;53.816;8.902;2023-10-13T01:59:54;67.53;;;21.00;;
22557;SDS011;11445;53.816;8.902;2023-10-13T02:02:20;58.97;;;20.88;;
22557;SDS011;11445;53.816;8.902;2023-10-13T02:07:22;59.95;;;19.35;;
22557;SDS011;11445;53.816;8.902;2023-10-13T02:09:54;61.73;;;20.53;;
22557;SDS011;11445;53.816;8.902;2023-10-13T02:12:20;66.35;;;21.35;;
22557;SDS011;11445;53.816;8.902;2023-10-13T02:14:51;64.07;;;21.30;;
22557;SDS011;11445;53.816;8.902;2023-10-13T02:17:18;58.28;;;20.48;;
22557;SDS011;11445;53.816;8.902;2023-10-13T02:19:48;59.35;;;20.45;;
22557;SDS011;11445;53.816;8.902;2023-10-13T02:22:14;70.00;;;21.52;;
22557;SDS011;11445;53.816;8.902;2023-10-13T02:24:52;79.53;;;22.30;;
22557;SDS011;11445;53.816;8.902;2023-10-13T02:27:18;83.55;;;22.80;;
22557;SDS011;11445;53.816;8.902;2023-10-13T02:29:48;65.15;;;21.08;;
22557;SDS011;11445;53.816;8.902;2023-10-13T02:32:14;71.65;;;22.27;;
22557;SDS011;11445;53.816;8.902;2023-10-13T02:34:45;72.20;;;21.70;;
22557;SDS011;11445;53.816;8.902;2023-10-13T02:37:11;67.90;;;22.15;;
22557;SDS011;11445;53.816;8.902;2023-10-13T02:39:38;71.60;;;20.85;;
22557;SDS011;11445;53.816;8.902;2023-10-13T02:42:06;62.92;;;21.38;;
22557;SDS011;11445;53.816;8.902;2023-10-13T02:44:33;75.40;;;21.60;;
22557;SDS011;11445;53.816;8.902;2023-10-13T02:47:01;63.88;;;20.92;;
22557;SDS011;11445;53.816;8.902;2023-10-13T02:49:30;70.13;;;22.05;;
22557;SDS011;11445;53.816;8.902;2023-10-13T02:52:00;76.60;;;22.58;;
22557;SDS011;11445;53.816;8.902;2023-10-13T02:54:32;66.00;;;21.67;;
22557;SDS011;11445;53.816;8.902;2023-10-13T02:57:05;65.97;;;20.38;;
22557;SDS011;11445;53.816;8.902;2023-10-13T02:59:32;61.42;;;20.80;;
22557;SDS011;11445;53.816;8.902;2023-10-13T03:02:05;61.50;;;20.23;;
22557;SDS011;11445;53.816;8.902;2023-10-13T03:04:42;63.15;;;21.10;;
22557;SDS011;11445;53.816;8.902;2023-10-13T03:07:11;62.78;;;19.73;;
22557;SDS011;11445;53.816;8.902;2023-10-13T03:09:40;67.18;;;20.83;;
22557;SDS011;11445;53.816;8.902;2023-10-13T03:12:15;73.85;;;21.33;;
22557;SDS011;11445;53.816;8.902;2023-10-13T03:14:41;57.30;;;19.77;;
22557;SDS011;11445;53.816;8.902;2023-10-13T03:17:12;59.17;;;20.52;;
22557;SDS011;11445;53.816;8.902;2023-10-13T03:19:42;65.07;;;20.67;;
22557;SDS011;11445;53.816;8.902;2023-10-13T03:22:13;67.88;;;20.58;;
22557;SDS011;11445;53.816;8.902;2023-10-13T03:24:41;62.22;;;20.25;;
22557;SDS011;11445;53.816;8.902;2023-10-13T03:27:11;62.38;;;20.17;;
22557;SDS011;11445;53.816;8.902;2023-10-13T03:29:41;62.20;;;19.50;;
22557;SDS011;11445;53.816;8.902;2023-10-13T03:32:09;56.92;;;19.23;;
22557;SDS011;11445;53.816;8.902;2023-10-13T03:34:37;55.75;;;19.92;;
22557;SDS011;11445;53.816;8.902;2023-10-13T03:37:19;54.92;;;18.73;;
22557;SDS011;11445;53.816;8.902;2023-10-13T03:40:02;49.92;;;17.38;;
22557;SDS011;11445;53.816;8.902;2023-10-13T03:42:41;50.20;;;17.85;;
22557;SDS011;11445;53.816;8.902;2023-10-13T03:45:08;61.22;;;19.38;;
22557;SDS011;11445;53.816;8.902;2023-10-13T03:47:35;56.47;;;18.88;;
22557;SDS011;11445;53.816;8.902;2023-10-13T03:50:03;53.28;;;19.77;;
22557;SDS011;11445;53.816;8.902;2023-10-13T03:52:42;63.45;;;20.63;;
22557;SDS011;11445;53.816;8.902;2023-10-13T03:55:09;64.30;;;20.10;;
22557;SDS011;11445;53.816;8.902;2023-10-13T03:57:42;67.70;;;21.08;;
22557;SDS011;11445;53.816;8.902;2023-10-13T04:00:11;65.13;;;21.35;;
22557;SDS011;11445;53.816;8.902;2023-10-13T04:02:46;84.78;;;23.67;;
22557;SDS011;11445;53.816;8.902;2023-10-13T04:05:19;74.55;;;23.13;;
22557;SDS011;11445;53.816;8.902;2023-10-13T04:08:03;69.63;;;22.80;;
22557;SDS011;11445;53.816;8.902;2023-10-13T04:10:48;62.67;;;22.30;;
22557;SDS011;11445;53.816;8.902;2023-10-13T04:13:32;63.75;;;22.88;;
22557;SDS011;11445;53.816;8.902;2023-10-13T04:16:17;57.67;;;21.75;;
22557;SDS011;11445;53.816;8.902;2023-10-13T04:18:57;69.70;;;23.42;;
22557;SDS011;11445;53.816;8.902;2023-10-13T04:21:33;76.97;;;24.30;;
22557;SDS011;11445;53.816;8.902;2023-10-13T04:24:09;73.35;;;24.98;;
22557;SDS011;11445;53.816;8.902;2023-10-13T04:27:02;76.30;;;25.73;;
22557;SDS011;11445;53.816;8.902;2023-10-13T04:29:54;75.25;;;26.25;;
22557;SDS011;11445;53.816;8.902;2023-10-13T04:32:35;87.47;;;27.13;;
22557;SDS011;11445;53.816;8.902;2023-10-13T04:35:06;97.47;;;29.33;;
22557;SDS011;11445;53.816;8.902;2023-10-13T04:37:42;91.68;;;29.77;;
22557;SDS011;11445;53.816;8.902;2023-10-13T04:40:24;94.68;;;31.30;;
22557;SDS011;11445;53.816;8.902;2023-10-13T04:42:51;110.07;;;32.20;;
22557;SDS011;11445;53.816;8.902;2023-10-13T04:45:22;106.40;;;31.10;;
22557;SDS011;11445;53.816;8.902;2023-10-13T04:48:04;102.95;;;32.28;;
22557;SDS011;11445;53.816;8.902;2023-10-13T04:50:58;99.47;;;32.25;;
22557;SDS011;11445;53.816;8.902;2023-10-13T04:53:40;105.53;;;32.95;;
22557;SDS011;11445;53.816;8.902;2023-10-13T04:56:22;122.53;;;35.72;;
22557;SDS011;11445;53.816;8.902;2023-10-13T04:59:02;117.90;;;36.35;;
22557;SDS011;11445;53.816;8.902;2023-10-13T05:01:42;121.30;;;36.03;;
22557;SDS011;11445;53.816;8.902;2023-10-13T05:04:35;111.03;;;35.70;;
22557;SDS011;11445;53.816;8.902;2023-10-13T05:07:25;116.63;;;38.25;;
22557;SDS011;11445;53.816;8.902;2023-10-13T05:10:09;112.18;;;37.03;;
22557;SDS011;11445;53.816;8.902;2023-10-13T05:12:55;122.47;;;37.70;;
22557;SDS011;11445;53.816;8.902;2023-10-13T05:15:43;116.07;;;37.25;;
22557;SDS011;11445;53.816;8.902;2023-10-13T05:18:27;119.30;;;37.75;;
22557;SDS011;11445;53.816;8.902;2023-10-13T05:21:12;119.85;;;38.40;;
22557;SDS011;11445;53.816;8.902;2023-10-13T05:23:56;118.53;;;37.92;;
22557;SDS011;11445;53.816;8.902;2023-10-13T05:26:40;127.72;;;39.70;;
22557;SDS011;11445;53.816;8.902;2023-10-13T05:29:25;129.68;;;40.45;;
22557;SDS011;11445;53.816;8.902;2023-10-13T05:32:09;125.50;;;39.05;;
22557;SDS011;11445;53.816;8.902;2023-10-13T05:34:54;124.65;;;38.80;;
22557;SDS011;11445;53.816;8.902;2023-10-13T05:37:38;123.57;;;39.58;;
22557;SDS011;11445;53.816;8.902;2023-10-13T05:40:22;117.13;;;39.10;;
22557;SDS011;11445;53.816;8.902;2023-10-13T05:43:06;115.53;;;38.53;;
22557;SDS011;11445;53.816;8.902;2023-10-13T05:45:52;107.28;;;36.20;;
22557;SDS011;11445;53.816;8.902;2023-10-13T05:48:32;108.35;;;37.50;;
22557;SDS011;11445;53.816;8.902;2023-10-13T05:51:29;109.93;;;34.78;;
22557;SDS011;11445;53.816;8.902;2023-10-13T05:54:08;104.38;;;35.85;;
22557;SDS011;11445;53.816;8.902;2023-10-13T05:56:53;107.70;;;35.78;;
22557;SDS011;11445;53.816;8.902;2023-10-13T05:59:38;96.78;;;35.20;;
22557;SDS011;11445;53.816;8.902;2023-10-13T06:02:23;119.13;;;36.08;;
22557;SDS011;11445;53.816;8.902;2023-10-13T06:05:08;105.20;;;34.80;;
22557;SDS011;11445;53.816;8.902;2023-10-13T06:07:53;102.28;;;32.72;;
22557;SDS011;11445;53.816;8.902;2023-10-13T06:10:39;114.97;;;36.58;;
22557;SDS011;11445;53.816;8.902;2023-10-13T06:13:29;105.68;;;35.30;;
22557;SDS011;11445;53.816;8.902;2023-10-13T06:16:14;103.45;;;34.58;;
22557;SDS011;11445;53.816;8.902;2023-10-13T06:19:01;108.50;;;35.50;;
22557;SDS011;11445;53.816;8.902;2023-10-13T06:21:46;107.82;;;35.97;;
22557;SDS011;11445;53.816;8.902;2023-10-13T06:24:31;102.72;;;34.28;;
22557;SDS011;11445;53.816;8.902;2023-10-13T06:27:15;114.82;;;35.30;;
22557;SDS011;11445;53.816;8.902;2023-10-13T06:30:00;103.55;;;34.25;;
22557;SDS011;11445;53.816;8.902;2023-10-13T06:32:28;103.45;;;33.78;;
22557;SDS011;11445;53.816;8.902;2023-10-13T06:34:56;96.32;;;34.10;;
22557;SDS011;11445;53.816;8.902;2023-10-13T06:37:29;93.95;;;31.83;;
22557;SDS011;11445;53.816;8.902;2023-10-13T06:39:57;93.80;;;32.70;;
22557;SDS011;11445;53.816;8.902;2023-10-13T06:42:31;98.75;;;33.15;;
22557;SDS011;11445;53.816;8.902;2023-10-13T06:44:59;90.85;;;32.25;;
22557;SDS011;11445;53.816;8.902;2023-10-13T06:47:33;99.28;;;32.75;;
22557;SDS011;11445;53.816;8.902;2023-10-13T06:50:06;92.32;;;31.80;;
22557;SDS011;11445;53.816;8.902;2023-10-13T06:52:40;90.70;;;31.23;;
22557;SDS011;11445;53.816;8.902;2023-10-13T06:55:07;83.85;;;30.40;;
22557;SDS011;11445;53.816;8.902;2023-10-13T06:57:36;88.78;;;31.15;;
22557;SDS011;11445;53.816;8.902;2023-10-13T07:00:08;84.97;;;31.10;;
22557;SDS011;11445;53.816;8.902;2023-10-13T07:02:44;76.53;;;29.80;;
22557;SDS011;11445;53.816;8.902;2023-10-13T07:05:13;83.22;;;29.90;;
22557;SDS011;11445;53.816;8.902;2023-10-13T07:07:40;77.25;;;29.23;;
22557;SDS011;11445;53.816;8.902;2023-10-13T07:10:09;85.47;;;31.45;;
22557;SDS011;11445;53.816;8.902;2023-10-13T07:12:36;80.05;;;29.98;;
22557;SDS011;11445;53.816;8.902;2023-10-13T07:15:08;83.28;;;31.77;;
22557;SDS011;11445;53.816;8.902;2023-10-13T07:17:44;90.68;;;31.38;;
22557;SDS011;11445;53.816;8.902;2023-10-13T07:20:13;72.82;;;28.50;;
22557;SDS011;11445;53.816;8.902;2023-10-13T07:22:48;78.38;;;28.95;;
22557;SDS011;11445;53.816;8.902;2023-10-13T07:25:22;71.40;;;27.83;;
22557;SDS011;11445;53.816;8.902;2023-10-13T07:27:51;76.60;;;28.38;;
22557;SDS011;11445;53.816;8.902;2023-10-13T07:30:19;75.25;;;28.85;;
22557;SDS011;11445;53.816;8.902;2023-10-13T07:32:51;66.57;;;27.07;;
22557;SDS011;11445;53.816;8.902;2023-10-13T07:35:21;76.70;;;26.08;;
22557;SDS011;11445;53.816;8.902;2023-10-13T07:37:49;66.47;;;24.33;;
22557;SDS011;11445;53.816;8.902;2023-10-13T07:40:20;47.22;;;20.92;;
22557;SDS011;11445;53.816;8.902;2023-10-13T07:43:04;65.82;;;22.63;;
22557;SDS011;11445;53.816;8.902;2023-10-13T07:45:35;61.70;;;24.30;;
22557;SDS011;11445;53.816;8.902;2023-10-13T07:48:03;53.33;;;22.45;;
22557;SDS011;11445;53.816;8.902;2023-10-13T07:50:38;47.88;;;20.30;;
22557;SDS011;11445;53.816;8.902;2023-10-13T07:53:05;43.47;;;19.00;;
22557;SDS011;11445;53.816;8.902;2023-10-13T07:55:44;44.70;;;18.90;;
22557;SDS011;11445;53.816;8.902;2023-10-13T07:58:11;46.17;;;19.23;;
22557;SDS011;11445;53.816;8.902;2023-10-13T08:00:38;42.35;;;18.17;;
22557;SDS011;11445;53.816;8.902;2023-10-13T08:03:12;42.38;;;17.95;;
22557;SDS011;11445;53.816;8.902;2023-10-13T08:06:01;41.00;;;18.08;;
22557;SDS011;11445;53.816;8.902;2023-10-13T08:08:31;30.27;;;15.07;;
22557;SDS011;11445;53.816;8.902;2023-10-13T08:11:03;21.08;;;11.25;;
22557;SDS011;11445;53.816;8.902;2023-10-13T08:16:04;22.40;;;11.43;;
22557;SDS011;11445;53.816;8.902;2023-10-13T08:18:33;22.38;;;11.60;;
22557;SDS011;11445;53.816;8.902;2023-10-13T08:21:02;17.83;;;10.13;;
22557;SDS011;11445;53.816;8.902;2023-10-13T08:23:31;19.45;;;10.30;;
22557;SDS011;11445;53.816;8.902;2023-10-13T08:26:23;17.67;;;10.50;;
22557;SDS011;11445;53.816;8.902;2023-10-13T08:29:04;24.70;;;10.50;;
22557;SDS011;11445;53.816;8.902;2023-10-13T08:31:45;19.40;;;11.52;;
22557;SDS011;11445;53.816;8.902;2023-10-13T08:34:29;19.90;;;11.50;;
22557;SDS011;11445;53.816;8.902;2023-10-13T08:37:04;23.15;;;12.32;;
22557;SDS011;11445;53.816;8.902;2023-10-13T08:39:44;23.60;;;11.63;;
22557;SDS011;11445;53.816;8.902;2023-10-13T08:42:40;22.77;;;11.70;;
22557;SDS011;11445;53.816;8.902;2023-10-13T08:45:35;20.30;;;10.57;;
22557;SDS011;11445;53.816;8.902;2023-10-13T08:48:24;23.60;;;11.82;;
22557;SDS011;11445;53.816;8.902;2023-10-13T08:50:57;18.30;;;10.57;;
22557;SDS011;11445;53.816;8.902;2023-10-13T08:53:37;17.58;;;9.10;;
22557;SDS011;11445;53.816;8.902;2023-10-13T08:56:11;13.57;;;8.35;;
22557;SDS011;11445;53.816;8.902;2023-10-13T08:58:42;15.02;;;8.23;;
22557;SDS011;11445;53.816;8.902;2023-10-13T09:01:36;13.75;;;8.15;;
22557;SDS011;11445;53.816;8.902;2023-10-13T09:04:11;11.57;;;8.23;;
22557;SDS011;11445;53.816;8.902;2023-10-13T09:06:47;13.50;;;9.25;;
22557;SDS011;11445;53.816;8.902;2023-10-13T09:09:29;13.07;;;7.78;;
22557;SDS011;11445;53.816;8.902;2023-10-13T09:12:10;12.20;;;7.97;;
22557;SDS011;11445;53.816;8.902;2023-10-13T09:14:36;14.00;;;8.98;;
22557;SDS011;11445;53.816;8.902;2023-10-13T09:17:08;12.85;;;8.88;;
22557;SDS011;11445;53.816;8.902;2023-10-13T09:19:49;12.85;;;8.63;;
22557;SDS011;11445;53.816;8.902;2023-10-13T09:22:24;13.02;;;8.65;;
22557;SDS011;11445;53.816;8.902;2023-10-13T09:24:55;14.70;;;8.70;;
22557;SDS011;11445;53.816;8.902;2023-10-13T09:27:25;16.95;;;8.65;;
22557;SDS011;11445;53.816;8.902;2023-10-13T09:29:56;18.90;;;8.32;;
22557;SDS011;11445;53.816;8.902;2023-10-13T09:32:35;15.70;;;8.40;;
22557;SDS011;11445;53.816;8.902;2023-10-13T09:35:10;13.38;;;7.78;;
22557;SDS011;11445;53.816;8.902;2023-10-13T09:37:44;23.08;;;8.60;;
22557;SDS011;11445;53.816;8.902;2023-10-13T09:40:13;16.15;;;8.70;;
22557;SDS011;11445;53.816;8.902;2023-10-13T09:42:59;13.95;;;7.70;;
22557;SDS011;11445;53.816;8.902;2023-10-13T09:45:33;16.52;;;8.98;;
22557;SDS011;11445;53.816;8.902;2023-10-13T09:48:07;10.82;;;7.30;;
22557;SDS011;11445;53.816;8.902;2023-10-13T09:50:41;16.27;;;7.72;;
22557;SDS011;11445;53.816;8.902;2023-10-13T09:53:10;11.93;;;7.35;;
22557;SDS011;11445;53.816;8.902;2023-10-13T09:55:42;13.65;;;7.45;;
22557;SDS011;11445;53.816;8.902;2023-10-13T09:58:12;12.95;;;7.43;;
22557;SDS011;11445;53.816;8.902;2023-10-13T10:00:43;14.07;;;7.30;;
22557;SDS011;11445;53.816;8.902;2023-10-13T10:03:14;12.88;;;8.13;;
22557;SDS011;11445;53.816;8.902;2023-10-13T10:05:54;18.90;;;8.05;;
22557;SDS011;11445;53.816;8.902;2023-10-13T10:08:31;15.38;;;7.35;;
22557;SDS011;11445;53.816;8.902;2023-10-13T10:11:17;18.23;;;8.25;;
22557;SDS011;11445;53.816;8.902;2023-10-13T10:14:05;16.50;;;7.80;;
22557;SDS011;11445;53.816;8.902;2023-10-13T10:16:37;18.17;;;8.57;;
22557;SDS011;11445;53.816;8.902;2023-10-13T10:19:11;13.13;;;7.63;;
22557;SDS011;11445;53.816;8.902;2023-10-13T10:21:38;14.73;;;7.78;;
22557;SDS011;11445;53.816;8.902;2023-10-13T10:24:15;14.60;;;7.32;;
22557;SDS011;11445;53.816;8.902;2023-10-13T10:26:56;20.20;;;8.48;;
22557;SDS011;11445;53.816;8.902;2023-10-13T10:29:23;19.67;;;8.15;;
22557;SDS011;11445;53.816;8.902;2023-10-13T10:31:49;19.17;;;9.10;;
22557;SDS011;11445;53.816;8.902;2023-10-13T10:34:17;23.08;;;8.45;;
22557;SDS011;11445;53.816;8.902;2023-10-13T10:36:47;18.30;;;8.38;;
22557;SDS011;11445;53.816;8.902;2023-10-13T10:39:19;20.48;;;8.77;;
22557;SDS011;11445;53.816;8.902;2023-10-13T10:42:08;23.48;;;8.60;;
22557;SDS011;11445;53.816;8.902;2023-10-13T10:44:40;25.35;;;8.70;;
22557;SDS011;11445;53.816;8.902;2023-10-13T10:47:09;19.10;;;8.73;;
22557;SDS011;11445;53.816;8.902;2023-10-13T10:49:37;20.33;;;8.70;;
22557;SDS011;11445;53.816;8.902;2023-10-13T10:52:06;20.20;;;8.57;;
22557;SDS011;11445;53.816;8.902;2023-10-13T10:54:43;16.85;;;7.95;;
22557;SDS011;11445;53.816;8.902;2023-10-13T10:57:18;22.00;;;8.38;;
22557;SDS011;11445;53.816;8.902;2023-10-13T10:59:44;20.05;;;8.50;;
22557;SDS011;11445;53.816;8.902;2023-10-13T11:02:12;22.77;;;9.25;;
22557;SDS011;11445;53.816;8.902;2023-10-13T11:04:52;18.25;;;8.63;;
22557;SDS011;11445;53.816;8.902;2023-10-13T11:07:21;19.35;;;8.20;;
22557;SDS011;11445;53.816;8.902;2023-10-13T11:09:49;24.45;;;9.52;;
22557;SDS011;11445;53.816;8.902;2023-10-13T11:12:19;19.15;;;9.35;;
22557;SDS011;11445;53.816;8.902;2023-10-13T11:17:40;21.42;;;9.60;;
22557;SDS011;11445;53.816;8.902;2023-10-13T11:20:16;26.80;;;9.90;;
22557;SDS011;11445;53.816;8.902;2023-10-13T11:22:50;21.45;;;9.45;;
22557;SDS011;11445;53.816;8.902;2023-10-13T11:25:22;21.38;;;8.90;;
22557;SDS011;11445;53.816;8.902;2023-10-13T11:27:56;19.42;;;9.52;;
22557;SDS011;11445;53.816;8.902;2023-10-13T11:30:25;17.40;;;9.25;;
22557;SDS011;11445;53.816;8.902;2023-10-13T11:32:57;20.58;;;9.02;;
22557;SDS011;11445;53.816;8.902;2023-10-13T11:35:24;17.20;;;8.48;;
22557;SDS011;11445;53.816;8.902;2023-10-13T11:37:54;19.50;;;9.43;;
22557;SDS011;11445;53.816;8.902;2023-10-13T11:40:28;19.00;;;8.40;;
22557;SDS011;11445;53.816;8.902;2023-10-13T11:43:10;18.50;;;8.20;;
22557;SDS011;11445;53.816;8.902;2023-10-13T11:45:40;21.77;;;8.88;;
22557;SDS011;11445;53.816;8.902;2023-10-13T11:48:20;17.75;;;7.53;;
22557;SDS011;11445;53.816;8.902;2023-10-13T11:50:59;14.38;;;7.80;;
22557;SDS011;11445;53.816;8.902;2023-10-13T11:53:26;16.08;;;7.90;;
22557;SDS011;11445;53.816;8.902;2023-10-13T11:55:54;20.10;;;7.50;;
22557;SDS011;11445;53.816;8.902;2023-10-13T11:58:23;32.80;;;7.38;;
22557;SDS011;11445;53.816;8.902;2023-10-13T12:00:49;20.80;;;6.85;;
22557;SDS011;11445;53.816;8.902;2023-10-13T12:03:32;13.93;;;7.05;;
22557;SDS011;11445;53.816;8.902;2023-10-13T12:06:17;18.52;;;7.18;;
22557;SDS011;11445;53.816;8.902;2023-10-13T12:08:57;24.73;;;7.40;;
22557;SDS011;11445;53.816;8.902;2023-10-13T12:11:43;17.65;;;7.32;;
22557;SDS011;11445;53.816;8.902;2023-10-13T12:14:11;12.98;;;7.03;;
22557;SDS011;11445;53.816;8.902;2023-10-13T12:16:42;18.27;;;6.70;;
22557;SDS011;11445;53.816;8.902;2023-10-13T12:19:13;14.68;;;5.97;;
22557;SDS011;11445;53.816;8.902;2023-10-13T12:21:42;15.00;;;6.95;;
22557;SDS011;11445;53.816;8.902;2023-10-13T12:24:10;19.13;;;6.20;;
22557;SDS011;11445;53.816;8.902;2023-10-13T12:26:47;16.13;;;5.70;;
22557;SDS011;11445;53.816;8.902;2023-10-13T12:29:22;14.63;;;5.60;;
22557;SDS011;11445;53.816;8.902;2023-10-13T12:31:53;16.17;;;5.95;;
22557;SDS011;11445;53.816;8.902;2023-10-13T12:34:32;14.73;;;5.95;;
22557;SDS011;11445;53.816;8.902;2023-10-13T12:37:22;14.30;;;5.97;;
22557;SDS011;11445;53.816;8.902;2023-10-13T12:40:04;16.63;;;5.80;;
22557;SDS011;11445;53.816;8.902;2023-10-13T12:42:50;20.30;;;6.53;;
22557;SDS011;11445;53.816;8.902;2023-10-13T12:45:39;17.40;;;5.38;;
22557;SDS011;11445;53.816;8.902;2023-10-13T12:48:23;26.88;;;6.00;;
22557;SDS011;11445;53.816;8.902;2023-10-13T12:51:07;18.92;;;5.25;;
22557;SDS011;11445;53.816;8.902;2023-10-13T12:53:45;18.55;;;5.28;;
22557;SDS011;11445;53.816;8.902;2023-10-13T12:56:13;17.35;;;5.13;;
22557;SDS011;11445;53.816;8.902;2023-10-13T12:58:39;20.95;;;5.80;;
22557;SDS011;11445;53.816;8.902;2023-10-13T13:01:08;18.40;;;5.00;;
22557;SDS011;11445;53.816;8.902;2023-10-13T13:03:34;19.15;;;4.93;;
22557;SDS011;11445;53.816;8.902;2023-10-13T13:06:01;21.35;;;4.85;;
22557;SDS011;11445;53.816;8.902;2023-10-13T13:08:32;19.27;;;5.65;;
22557;SDS011;11445;53.816;8.902;2023-10-13T13:11:01;20.40;;;5.22;;
22557;SDS011;11445;53.816;8.902;2023-10-13T13:13:28;15.77;;;4.53;;
22557;SDS011;11445;53.816;8.902;2023-10-13T13:15:55;12.15;;;4.47;;
22557;SDS011;11445;53.816;8.902;2023-10-13T13:18:23;18.25;;;5.20;;
22557;SDS011;11445;53.816;8.902;2023-10-13T13:20:50;19.67;;;4.60;;
22557;SDS011;11445;53.816;8.902;2023-10-13T13:23:20;17.90;;;5.13;;
22557;SDS011;11445;53.816;8.902;2023-10-13T13:25:50;22.70;;;5.22;;
22557;SDS011;11445;53.816;8.902;2023-10-13T13:28:17;13.80;;;4.97;;
22557;SDS011;11445;53.816;8.902;2023-10-13T13:30:44;21.55;;;5.18;;
22557;SDS011;11445;53.816;8.902;2023-10-13T13:33:15;12.43;;;4.60;;
22557;SDS011;11445;53.816;8.902;2023-10-13T13:35:52;17.35;;;5.45;;
22557;SDS011;11445;53.816;8.902;2023-10-13T13:38:19;24.83;;;5.38;;
22557;SDS011;11445;53.816;8.902;2023-10-13T13:40:52;17.45;;;5.85;;
22557;SDS011;11445;53.816;8.902;2023-10-13T13:43:20;23.85;;;6.80;;
22557;SDS011;11445;53.816;8.902;2023-10-13T13:46:01;24.95;;;5.88;;
22557;SDS011;11445;53.816;8.902;2023-10-13T13:48:28;19.40;;;5.60;;
22557;SDS011;11445;53.816;8.902;2023-10-13T13:50:57;15.95;;;5.70;;
22557;SDS011;11445;53.816;8.902;2023-10-13T13:53:29;22.83;;;5.90;;
22557;SDS011;11445;53.816;8.902;2023-10-13T13:55:59;21.05;;;5.57;;
22557;SDS011;11445;53.816;8.902;2023-10-13T13:58:27;18.17;;;6.10;;
22557;SDS011;11445;53.816;8.902;2023-10-13T14:00:59;21.67;;;5.47;;
22557;SDS011;11445;53.816;8.902;2023-10-13T14:03:26;19.98;;;5.82;;
22557;SDS011;11445;53.816;8.902;2023-10-13T14:05:58;14.70;;;6.10;;
22557;SDS011;11445;53.816;8.902;2023-10-13T14:08:25;24.40;;;6.00;;
22557;SDS011;11445;53.816;8.902;2023-10-13T14:10:52;14.52;;;5.70;;
22557;SDS011;11445;53.816;8.902;2023-10-13T14:13:36;19.48;;;5.95;;
22557;SDS011;11445;53.816;8.902;2023-10-13T14:16:13;27.90;;;6.53;;
22557;SDS011;11445;53.816;8.902;2023-10-13T14:18:42;22.17;;;5.90;;
22557;SDS011;11445;53.816;8.902;2023-10-13T14:21:11;17.35;;;6.63;;
22557;SDS011;11445;53.816;8.902;2023-10-13T14:23:42;21.00;;;6.70;;
22557;SDS011;11445;53.816;8.902;2023-10-13T14:26:11;22.67;;;6.38;;
22557;SDS011;11445;53.816;8.902;2023-10-13T14:28:38;27.00;;;7.03;;
22557;SDS011;11445;53.816;8.902;2023-10-13T14:31:15;22.67;;;6.15;;
22557;SDS011;11445;53.816;8.902;2023-10-13T14:33:44;25.55;;;6.57;;
22557;SDS011;11445;53.816;8.902;2023-10-13T14:36:12;18.05;;;6.40;;
22557;SDS011;11445;53.816;8.902;2023-10-13T14:41:14;26.98;;;6.57;;
22557;SDS011;11445;53.816;8.902;2023-10-13T14:43:41;19.83;;;6.90;;
22557;SDS011;11445;53.816;8.902;2023-10-13T14:46:12;21.67;;;6.57;;
22557;SDS011;11445;53.816;8.902;2023-10-13T14:48:40;15.82;;;6.45;;
22557;SDS011;11445;53.816;8.902;2023-10-13T14:51:08;24.45;;;7.15;;
22557;SDS011;11445;53.816;8.902;2023-10-13T14:53:39;20.67;;;7.05;;
22557;SDS011;11445;53.816;8.902;2023-10-13T14:56:09;19.15;;;7.45;;
22557;SDS011;11445;53.816;8.902;2023-10-13T14:58:37;21.92;;;7.05;;
22557;SDS011;11445;53.816;8.902;2023-10-13T15:01:10;20.13;;;7.15;;
22557;SDS011;11445;53.816;8.902;2023-10-13T15:03:40;18.83;;;6.85;;
22557;SDS011;11445;53.816;8.902;2023-10-13T15:06:14;16.05;;;7.10;;
22557;SDS011;11445;53.816;8.902;2023-10-13T15:08:44;18.88;;;7.43;;
22557;SDS011;11445;53.816;8.902;2023-10-13T15:11:12;17.67;;;7.45;;
22557;SDS011;11445;53.816;8.902;2023-10-13T15:13:39;21.63;;;6.90;;
22557;SDS011;11445;53.816;8.902;2023-10-13T15:16:12;27.92;;;7.85;;